<?xml version="1.0" encoding="UTF-8" standalone="no" ?>
<gpx xmlns="http://www.topografix.com/GPX/1/1" xmlns:xsi="http://www.w3.org/2001/XMLSchema-instance" xsi:schemaLocation="http://www.topografix.com/GPX/1/1 http://www.topografix.com/GPX/1/1/gpx.xsd" version="1.1" creator="VisuGPX - https://www.visugpx.com">
  <metadata>
    <name>Suède</name>
  </metadata>
  <trk>
    <name><![CDATA[Tour d'Europe: étape 093]]></name>
    <trkseg>
      <trkpt lat="64.26877" lon="21.04482">
        <ele>36.860623</ele>
        <time>2020-09-29T07:51:46.475Z</time>
      </trkpt>
      <trkpt lat="64.26739" lon="21.04624">
        <ele>39.393925</ele>
        <time>2020-09-29T07:52:51.436Z</time>
      </trkpt>
      <trkpt lat="64.26529" lon="21.04641">
        <ele>48.664089</ele>
        <time>2020-09-29T07:53:53.442Z</time>
      </trkpt>
      <trkpt lat="64.26312" lon="21.04661">
        <ele>49.34329</ele>
        <time>2020-09-29T07:54:45.443Z</time>
      </trkpt>
      <trkpt lat="64.26102" lon="21.04641">
        <ele>46.426957</ele>
        <time>2020-09-29T07:55:25.462Z</time>
      </trkpt>
      <trkpt lat="64.25863" lon="21.04595">
        <ele>46.49134</ele>
        <time>2020-09-29T07:56:20.447Z</time>
      </trkpt>
      <trkpt lat="64.25651" lon="21.04544">
        <ele>47.909289</ele>
        <time>2020-09-29T07:57:08.455Z</time>
      </trkpt>
      <trkpt lat="64.25575" lon="21.04284">
        <ele>53.420681</ele>
        <time>2020-09-29T07:58:16.458Z</time>
      </trkpt>
      <trkpt lat="64.25692" lon="21.0386">
        <ele>56.045324</ele>
        <time>2020-09-29T07:59:18.441Z</time>
      </trkpt>
      <trkpt lat="64.25708" lon="21.03325">
        <ele>48.494533</ele>
        <time>2020-09-29T07:59:56.454Z</time>
      </trkpt>
      <trkpt lat="64.25735" lon="21.02808">
        <ele>41.391794</ele>
        <time>2020-09-29T08:00:40.436Z</time>
      </trkpt>
      <trkpt lat="64.25745" lon="21.02307">
        <ele>42.865631</ele>
        <time>2020-09-29T08:01:43.471Z</time>
      </trkpt>
      <trkpt lat="64.25709" lon="21.01795">
        <ele>46.111983</ele>
        <time>2020-09-29T08:02:39.452Z</time>
      </trkpt>
      <trkpt lat="64.25542" lon="21.01451">
        <ele>46.673251</ele>
        <time>2020-09-29T08:03:32.492Z</time>
      </trkpt>
      <trkpt lat="64.25375" lon="21.01126">
        <ele>45.586233</ele>
        <time>2020-09-29T08:04:32.483Z</time>
      </trkpt>
      <trkpt lat="64.25201" lon="21.00875">
        <ele>52.72581</ele>
        <time>2020-09-29T08:05:34.448Z</time>
      </trkpt>
      <trkpt lat="64.24977" lon="21.01035">
        <ele>49.485291</ele>
        <time>2020-09-29T08:06:32.458Z</time>
      </trkpt>
      <trkpt lat="64.24775" lon="21.01223">
        <ele>42.330986</ele>
        <time>2020-09-29T08:07:20.475Z</time>
      </trkpt>
      <trkpt lat="64.24545" lon="21.0144">
        <ele>42.15704</ele>
        <time>2020-09-29T08:08:20.461Z</time>
      </trkpt>
      <trkpt lat="64.24319" lon="21.016">
        <ele>42.639683</ele>
        <time>2020-09-29T08:09:18.455Z</time>
      </trkpt>
      <trkpt lat="64.24109" lon="21.01634">
        <ele>48.710066</ele>
        <time>2020-09-29T08:10:24.444Z</time>
      </trkpt>
      <trkpt lat="64.23897" lon="21.016">
        <ele>57.883526</ele>
        <time>2020-09-29T08:11:38.435Z</time>
      </trkpt>
      <trkpt lat="64.23687" lon="21.01612">
        <ele>57.55128</ele>
        <time>2020-09-29T08:14:33.450Z</time>
      </trkpt>
      <trkpt lat="64.23458" lon="21.01666">
        <ele>57.947114</ele>
        <time>2020-09-29T08:15:27.440Z</time>
      </trkpt>
      <trkpt lat="64.23269" lon="21.01587">
        <ele>53.310134</ele>
        <time>2020-09-29T08:16:19.437Z</time>
      </trkpt>
      <trkpt lat="64.23254" lon="21.01057">
        <ele>41.443882</ele>
        <time>2020-09-29T08:16:50.492Z</time>
      </trkpt>
      <trkpt lat="64.23235" lon="21.00547">
        <ele>38.070464</ele>
        <time>2020-09-29T08:17:27.455Z</time>
      </trkpt>
      <trkpt lat="64.2322" lon="21.00067">
        <ele>41.225937</ele>
        <time>2020-09-29T08:18:14.462Z</time>
      </trkpt>
      <trkpt lat="64.23212" lon="20.99572">
        <ele>45.463174</ele>
        <time>2020-09-29T08:19:14.457Z</time>
      </trkpt>
      <trkpt lat="64.23225" lon="20.99065">
        <ele>47.05494</ele>
        <time>2020-09-29T08:20:01.468Z</time>
      </trkpt>
      <trkpt lat="64.2324" lon="20.98615">
        <ele>47.601412</ele>
        <time>2020-09-29T08:20:41.476Z</time>
      </trkpt>
      <trkpt lat="64.2325" lon="20.98162">
        <ele>50.276873</ele>
        <time>2020-09-29T08:21:24.450Z</time>
      </trkpt>
      <trkpt lat="64.2326" lon="20.97687">
        <ele>51.329751</ele>
        <time>2020-09-29T08:22:07.494Z</time>
      </trkpt>
      <trkpt lat="64.23278" lon="20.9719">
        <ele>45.76878</ele>
        <time>2020-09-29T08:22:47.453Z</time>
      </trkpt>
      <trkpt lat="64.2326" lon="20.96743">
        <ele>44.136239</ele>
        <time>2020-09-29T08:23:29.448Z</time>
      </trkpt>
      <trkpt lat="64.23215" lon="20.96268">
        <ele>46.467906</ele>
        <time>2020-09-29T08:24:15.476Z</time>
      </trkpt>
      <trkpt lat="64.23166" lon="20.95778">
        <ele>47.449988</ele>
        <time>2020-09-29T08:25:10.469Z</time>
      </trkpt>
      <trkpt lat="64.23119" lon="20.95314">
        <ele>50.366082</ele>
        <time>2020-09-29T08:26:10.452Z</time>
      </trkpt>
      <trkpt lat="64.23057" lon="20.94864">
        <ele>54.283956</ele>
        <time>2020-09-29T08:27:10.448Z</time>
      </trkpt>
      <trkpt lat="64.22905" lon="20.94465">
        <ele>59.009427</ele>
        <time>2020-09-29T08:28:10.452Z</time>
      </trkpt>
      <trkpt lat="64.22765" lon="20.94095">
        <ele>69.005216</ele>
        <time>2020-09-29T08:29:19.452Z</time>
      </trkpt>
      <trkpt lat="64.2267" lon="20.9367">
        <ele>73.261396</ele>
        <time>2020-09-29T08:30:28.456Z</time>
      </trkpt>
      <trkpt lat="64.22585" lon="20.93204">
        <ele>66.098393</ele>
        <time>2020-09-29T08:31:10.452Z</time>
      </trkpt>
      <trkpt lat="64.22508" lon="20.92766">
        <ele>68.068228</ele>
        <time>2020-09-29T08:31:53.457Z</time>
      </trkpt>
      <trkpt lat="64.22422" lon="20.923">
        <ele>80.313139</ele>
        <time>2020-09-29T08:32:55.468Z</time>
      </trkpt>
      <trkpt lat="64.22339" lon="20.91862">
        <ele>93.328413</ele>
        <time>2020-09-29T08:34:13.457Z</time>
      </trkpt>
      <trkpt lat="64.22208" lon="20.91406">
        <ele>89.123753</ele>
        <time>2020-09-29T08:35:13.468Z</time>
      </trkpt>
      <trkpt lat="64.22083" lon="20.91023">
        <ele>93.27783</ele>
        <time>2020-09-29T08:36:22.472Z</time>
      </trkpt>
      <trkpt lat="64.21941" lon="20.9059">
        <ele>82.004883</ele>
        <time>2020-09-29T08:36:56.488Z</time>
      </trkpt>
      <trkpt lat="64.21801" lon="20.90172">
        <ele>74.183025</ele>
        <time>2020-09-29T08:37:43.446Z</time>
      </trkpt>
      <trkpt lat="64.2168" lon="20.89794">
        <ele>88.047143</ele>
        <time>2020-09-29T08:38:49.482Z</time>
      </trkpt>
      <trkpt lat="64.21555" lon="20.89403">
        <ele>94.279473</ele>
        <time>2020-09-29T08:39:52.471Z</time>
      </trkpt>
      <trkpt lat="64.21401" lon="20.88989">
        <ele>89.879433</ele>
        <time>2020-09-29T08:40:52.480Z</time>
      </trkpt>
      <trkpt lat="64.21261" lon="20.88605">
        <ele>94.904169</ele>
        <time>2020-09-29T08:41:58.452Z</time>
      </trkpt>
      <trkpt lat="64.21123" lon="20.88235">
        <ele>98.525563</ele>
        <time>2020-09-29T08:43:08.465Z</time>
      </trkpt>
      <trkpt lat="64.20978" lon="20.87846">
        <ele>89.221771</ele>
        <time>2020-09-29T08:43:59.477Z</time>
      </trkpt>
      <trkpt lat="64.20838" lon="20.87475">
        <ele>89.898124</ele>
        <time>2020-09-29T08:44:52.459Z</time>
      </trkpt>
      <trkpt lat="64.20692" lon="20.87079">
        <ele>93.124287</ele>
        <time>2020-09-29T08:45:52.468Z</time>
      </trkpt>
      <trkpt lat="64.20561" lon="20.86725">
        <ele>97.74987</ele>
        <time>2020-09-29T08:46:52.461Z</time>
      </trkpt>
      <trkpt lat="64.20401" lon="20.86281">
        <ele>102.385501</ele>
        <time>2020-09-29T08:47:42.473Z</time>
      </trkpt>
      <trkpt lat="64.20208" lon="20.85773">
        <ele>87.85645</ele>
        <time>2020-09-29T08:48:24.469Z</time>
      </trkpt>
      <trkpt lat="64.20068" lon="20.85398">
        <ele>85.255018</ele>
        <time>2020-09-29T08:49:04.468Z</time>
      </trkpt>
      <trkpt lat="64.19916" lon="20.85008">
        <ele>89.135903</ele>
        <time>2020-09-29T08:49:51.488Z</time>
      </trkpt>
      <trkpt lat="64.19774" lon="20.84687">
        <ele>91.979405</ele>
        <time>2020-09-29T08:50:37.482Z</time>
      </trkpt>
      <trkpt lat="64.196" lon="20.84296">
        <ele>81.525304</ele>
        <time>2020-09-29T08:51:20.494Z</time>
      </trkpt>
      <trkpt lat="64.1943" lon="20.84384">
        <ele>77.412464</ele>
        <time>2020-09-29T08:52:11.431Z</time>
      </trkpt>
      <trkpt lat="64.19303" lon="20.84011">
        <ele>76.484693</ele>
        <time>2020-09-29T08:52:57.438Z</time>
      </trkpt>
      <trkpt lat="64.19134" lon="20.83829">
        <ele>80.046745</ele>
        <time>2020-09-29T08:53:52.472Z</time>
      </trkpt>
      <trkpt lat="64.18988" lon="20.83443">
        <ele>78.104267</ele>
        <time>2020-09-29T08:54:49.465Z</time>
      </trkpt>
      <trkpt lat="64.18814" lon="20.83488">
        <ele>72.432721</ele>
        <time>2020-09-29T08:55:34.448Z</time>
      </trkpt>
      <trkpt lat="64.18919" lon="20.83031">
        <ele>75.220332</ele>
        <time>2020-09-29T08:56:30.447Z</time>
      </trkpt>
      <trkpt lat="64.18999" lon="20.82573">
        <ele>72.245725</ele>
        <time>2020-09-29T08:57:26.450Z</time>
      </trkpt>
      <trkpt lat="64.18987" lon="20.82049">
        <ele>78.128784</ele>
        <time>2020-09-29T08:58:20.459Z</time>
      </trkpt>
      <trkpt lat="64.18908" lon="20.81586">
        <ele>78.010551</ele>
        <time>2020-09-29T08:59:31.493Z</time>
      </trkpt>
      <trkpt lat="64.18857" lon="20.81078">
        <ele>74.334215</ele>
        <time>2020-09-29T09:00:25.460Z</time>
      </trkpt>
      <trkpt lat="64.18756" lon="20.80635">
        <ele>78.334685</ele>
        <time>2020-09-29T09:01:27.484Z</time>
      </trkpt>
      <trkpt lat="64.18747" lon="20.80173">
        <ele>91.291362</ele>
        <time>2020-09-29T09:02:48.454Z</time>
      </trkpt>
      <trkpt lat="64.1876" lon="20.79699">
        <ele>92.169213</ele>
        <time>2020-09-29T09:04:02.493Z</time>
      </trkpt>
      <trkpt lat="64.18703" lon="20.79255">
        <ele>100.687851</ele>
        <time>2020-09-29T09:05:21.453Z</time>
      </trkpt>
      <trkpt lat="64.1862" lon="20.78833">
        <ele>101.905058</ele>
        <time>2020-09-29T09:06:45.465Z</time>
      </trkpt>
      <trkpt lat="64.18499" lon="20.78449">
        <ele>101.782648</ele>
        <time>2020-09-29T09:08:06.460Z</time>
      </trkpt>
      <trkpt lat="64.18375" lon="20.78101">
        <ele>112.239608</ele>
        <time>2020-09-29T09:09:20.461Z</time>
      </trkpt>
      <trkpt lat="64.18409" lon="20.77653">
        <ele>130.734219</ele>
        <time>2020-09-29T09:11:11.459Z</time>
      </trkpt>
      <trkpt lat="64.18496" lon="20.77264">
        <ele>134.692066</ele>
        <time>2020-09-29T09:12:57.501Z</time>
      </trkpt>
      <trkpt lat="64.18622" lon="20.76991">
        <ele>133.794773</ele>
        <time>2020-09-29T09:14:46.491Z</time>
      </trkpt>
      <trkpt lat="64.18731" lon="20.76585">
        <ele>136.079573</ele>
        <time>2020-09-29T09:15:50.465Z</time>
      </trkpt>
      <trkpt lat="64.18874" lon="20.76238">
        <ele>138.870171</ele>
        <time>2020-09-29T09:16:45.458Z</time>
      </trkpt>
      <trkpt lat="64.18981" lon="20.76144">
        <ele>126.534591</ele>
        <time>2020-09-29T09:17:39.463Z</time>
      </trkpt>
      <trkpt lat="64.1876" lon="20.7567">
        <ele>112.384461</ele>
        <time>2020-09-29T09:18:21.452Z</time>
      </trkpt>
      <trkpt lat="64.18614" lon="20.75256">
        <ele>112.810096</ele>
        <time>2020-09-29T09:19:05.451Z</time>
      </trkpt>
      <trkpt lat="64.1846" lon="20.74826">
        <ele>112.899336</ele>
        <time>2020-09-29T09:20:00.458Z</time>
      </trkpt>
      <trkpt lat="64.1829" lon="20.74355">
        <ele>105.391237</ele>
        <time>2020-09-29T09:20:40.451Z</time>
      </trkpt>
      <trkpt lat="64.18112" lon="20.73858">
        <ele>97.228063</ele>
        <time>2020-09-29T09:21:20.461Z</time>
      </trkpt>
      <trkpt lat="64.17975" lon="20.73475">
        <ele>99.332913</ele>
        <time>2020-09-29T09:22:07.451Z</time>
      </trkpt>
      <trkpt lat="64.17847" lon="20.73116">
        <ele>102.625327</ele>
        <time>2020-09-29T09:22:47.449Z</time>
      </trkpt>
      <trkpt lat="64.17715" lon="20.72746">
        <ele>101.934902</ele>
        <time>2020-09-29T09:23:42.455Z</time>
      </trkpt>
      <trkpt lat="64.17579" lon="20.72364">
        <ele>105.07411</ele>
        <time>2020-09-29T09:24:31.478Z</time>
      </trkpt>
      <trkpt lat="64.17443" lon="20.71992">
        <ele>106.51117</ele>
        <time>2020-09-29T09:25:22.470Z</time>
      </trkpt>
      <trkpt lat="64.17309" lon="20.71624">
        <ele>104.505061</ele>
        <time>2020-09-29T09:26:19.475Z</time>
      </trkpt>
      <trkpt lat="64.17162" lon="20.71219">
        <ele>106.527475</ele>
        <time>2020-09-29T09:27:19.481Z</time>
      </trkpt>
      <trkpt lat="64.17024" lon="20.70839">
        <ele>107.831349</ele>
        <time>2020-09-29T09:28:19.453Z</time>
      </trkpt>
      <trkpt lat="64.16887" lon="20.70463">
        <ele>109.949356</ele>
        <time>2020-09-29T09:29:19.499Z</time>
      </trkpt>
      <trkpt lat="64.16757" lon="20.70103">
        <ele>118.00413</ele>
        <time>2020-09-29T09:30:03.455Z</time>
      </trkpt>
      <trkpt lat="64.16622" lon="20.69676">
        <ele>113.748134</ele>
        <time>2020-09-29T09:30:49.465Z</time>
      </trkpt>
      <trkpt lat="64.16523" lon="20.69189">
        <ele>106.741257</ele>
        <time>2020-09-29T09:31:29.482Z</time>
      </trkpt>
      <trkpt lat="64.16432" lon="20.68742">
        <ele>114.542314</ele>
        <time>2020-09-29T09:32:29.481Z</time>
      </trkpt>
      <trkpt lat="64.16337" lon="20.6826">
        <ele>121.256928</ele>
        <time>2020-09-29T09:33:15.460Z</time>
      </trkpt>
      <trkpt lat="64.16259" lon="20.67831">
        <ele>115.941844</ele>
        <time>2020-09-29T09:33:55.476Z</time>
      </trkpt>
      <trkpt lat="64.16199" lon="20.67326">
        <ele>108.328672</ele>
        <time>2020-09-29T09:34:35.467Z</time>
      </trkpt>
      <trkpt lat="64.16142" lon="20.66847">
        <ele>101.73403</ele>
        <time>2020-09-29T09:35:15.467Z</time>
      </trkpt>
      <trkpt lat="64.16084" lon="20.66353">
        <ele>102.49379</ele>
        <time>2020-09-29T09:36:07.456Z</time>
      </trkpt>
      <trkpt lat="64.16026" lon="20.65862">
        <ele>101.60743</ele>
        <time>2020-09-29T09:36:56.466Z</time>
      </trkpt>
      <trkpt lat="64.15972" lon="20.65396">
        <ele>104.306414</ele>
        <time>2020-09-29T09:37:53.460Z</time>
      </trkpt>
      <trkpt lat="64.15809" lon="20.65073">
        <ele>104.496483</ele>
        <time>2020-09-29T09:38:49.475Z</time>
      </trkpt>
      <trkpt lat="64.1564" lon="20.64831">
        <ele>102.21815</ele>
        <time>2020-09-29T09:39:29.464Z</time>
      </trkpt>
      <trkpt lat="64.15475" lon="20.64594">
        <ele>108.27996</ele>
        <time>2020-09-29T09:40:17.486Z</time>
      </trkpt>
      <trkpt lat="64.15258" lon="20.64457">
        <ele>111.53865</ele>
        <time>2020-09-29T09:41:12.496Z</time>
      </trkpt>
      <trkpt lat="64.15065" lon="20.64348">
        <ele>106.597243</ele>
        <time>2020-09-29T09:41:53.472Z</time>
      </trkpt>
      <trkpt lat="64.1484" lon="20.64193">
        <ele>115.18368</ele>
        <time>2020-09-29T09:42:52.463Z</time>
      </trkpt>
      <trkpt lat="64.1469" lon="20.63872">
        <ele>118.00423</ele>
        <time>2020-09-29T09:44:09.473Z</time>
      </trkpt>
      <trkpt lat="64.14536" lon="20.63585">
        <ele>122.893382</ele>
        <time>2020-09-29T09:45:36.464Z</time>
      </trkpt>
      <trkpt lat="64.14368" lon="20.63323">
        <ele>135.960381</ele>
        <time>2020-09-29T09:46:58.490Z</time>
      </trkpt>
      <trkpt lat="64.14198" lon="20.6297">
        <ele>133.44152</ele>
        <time>2020-09-29T09:47:57.482Z</time>
      </trkpt>
      <trkpt lat="64.14042" lon="20.62549">
        <ele>127.694804</ele>
        <time>2020-09-29T09:48:37.483Z</time>
      </trkpt>
      <trkpt lat="64.13969" lon="20.6209">
        <ele>122.968312</ele>
        <time>2020-09-29T09:49:19.504Z</time>
      </trkpt>
      <trkpt lat="64.13955" lon="20.616">
        <ele>121.465245</ele>
        <time>2020-09-29T09:50:07.487Z</time>
      </trkpt>
      <trkpt lat="64.14014" lon="20.61131">
        <ele>126.905771</ele>
        <time>2020-09-29T09:50:56.455Z</time>
      </trkpt>
      <trkpt lat="64.14073" lon="20.60662">
        <ele>137.369723</ele>
        <time>2020-09-29T09:52:11.472Z</time>
      </trkpt>
      <trkpt lat="64.14077" lon="20.60183">
        <ele>149.742802</ele>
        <time>2020-09-29T09:53:30.460Z</time>
      </trkpt>
      <trkpt lat="64.14055" lon="20.597">
        <ele>147.903868</ele>
        <time>2020-09-29T09:54:49.488Z</time>
      </trkpt>
      <trkpt lat="64.14005" lon="20.59179">
        <ele>147.381609</ele>
        <time>2020-09-29T09:55:52.464Z</time>
      </trkpt>
      <trkpt lat="64.13919" lon="20.58752">
        <ele>166.732654</ele>
        <time>2020-09-29T09:57:26.498Z</time>
      </trkpt>
      <trkpt lat="64.13832" lon="20.58303">
        <ele>168.240187</ele>
        <time>2020-09-29T09:58:45.483Z</time>
      </trkpt>
      <trkpt lat="64.13736" lon="20.57812">
        <ele>164.762937</ele>
        <time>2020-09-29T09:59:42.486Z</time>
      </trkpt>
      <trkpt lat="64.13641" lon="20.57355">
        <ele>159.626789</ele>
        <time>2020-09-29T10:00:30.479Z</time>
      </trkpt>
      <trkpt lat="64.1355" lon="20.56907">
        <ele>161.529846</ele>
        <time>2020-09-29T10:01:19.474Z</time>
      </trkpt>
      <trkpt lat="64.13434" lon="20.56462">
        <ele>155.673509</ele>
        <time>2020-09-29T10:02:10.487Z</time>
      </trkpt>
      <trkpt lat="64.13343" lon="20.56026">
        <ele>143.714612</ele>
        <time>2020-09-29T10:31:38.779Z</time>
      </trkpt>
      <trkpt lat="64.13249" lon="20.55557">
        <ele>138.386811</ele>
        <time>2020-09-29T10:32:34.778Z</time>
      </trkpt>
      <trkpt lat="64.1309" lon="20.55207">
        <ele>139.41297</ele>
        <time>2020-09-29T10:39:53.772Z</time>
      </trkpt>
      <trkpt lat="64.12928" lon="20.54854">
        <ele>135.685338</ele>
        <time>2020-09-29T10:40:43.762Z</time>
      </trkpt>
      <trkpt lat="64.12713" lon="20.54493">
        <ele>131.112504</ele>
        <time>2020-09-29T10:41:23.776Z</time>
      </trkpt>
      <trkpt lat="64.12503" lon="20.54178">
        <ele>131.785467</ele>
        <time>2020-09-29T10:42:04.769Z</time>
      </trkpt>
      <trkpt lat="64.12278" lon="20.53995">
        <ele>122.338332</ele>
        <time>2020-09-29T10:42:46.765Z</time>
      </trkpt>
      <trkpt lat="64.12077" lon="20.5386">
        <ele>127.503359</ele>
        <time>2020-09-29T10:43:34.786Z</time>
      </trkpt>
      <trkpt lat="64.11867" lon="20.53755">
        <ele>132.194141</ele>
        <time>2020-09-29T10:44:27.771Z</time>
      </trkpt>
      <trkpt lat="64.11653" lon="20.53713">
        <ele>131.111326</ele>
        <time>2020-09-29T10:45:07.780Z</time>
      </trkpt>
      <trkpt lat="64.11398" lon="20.53655">
        <ele>121.632542</ele>
        <time>2020-09-29T10:45:47.761Z</time>
      </trkpt>
      <trkpt lat="64.11194" lon="20.53562">
        <ele>112.896022</ele>
        <time>2020-09-29T10:46:27.787Z</time>
      </trkpt>
      <trkpt lat="64.10986" lon="20.53454">
        <ele>110.50932</ele>
        <time>2020-09-29T10:47:09.783Z</time>
      </trkpt>
      <trkpt lat="64.10762" lon="20.53373">
        <ele>112.256911</ele>
        <time>2020-09-29T10:47:49.776Z</time>
      </trkpt>
      <trkpt lat="64.10548" lon="20.53433">
        <ele>120.24997</ele>
        <time>2020-09-29T10:48:35.790Z</time>
      </trkpt>
      <trkpt lat="64.10334" lon="20.53275">
        <ele>116.248234</ele>
        <time>2020-09-29T10:49:15.814Z</time>
      </trkpt>
      <trkpt lat="64.10184" lon="20.52902">
        <ele>117.16593</ele>
        <time>2020-09-29T10:49:58.820Z</time>
      </trkpt>
      <trkpt lat="64.10023" lon="20.52479">
        <ele>120.50934</ele>
        <time>2020-09-29T10:50:57.764Z</time>
      </trkpt>
      <trkpt lat="64.09864" lon="20.52091">
        <ele>124.970108</ele>
        <time>2020-09-29T10:51:51.793Z</time>
      </trkpt>
      <trkpt lat="64.0966" lon="20.51768">
        <ele>111.160774</ele>
        <time>2020-09-29T10:52:31.774Z</time>
      </trkpt>
      <trkpt lat="64.09482" lon="20.51507">
        <ele>108.068957</ele>
        <time>2020-09-29T10:53:11.786Z</time>
      </trkpt>
      <trkpt lat="64.09285" lon="20.51289">
        <ele>108.596962</ele>
        <time>2020-09-29T10:53:51.770Z</time>
      </trkpt>
      <trkpt lat="64.09104" lon="20.51055">
        <ele>110.194185</ele>
        <time>2020-09-29T10:54:31.776Z</time>
      </trkpt>
      <trkpt lat="64.09004" lon="20.50658">
        <ele>108.582852</ele>
        <time>2020-09-29T10:55:11.776Z</time>
      </trkpt>
      <trkpt lat="64.08869" lon="20.50323">
        <ele>109.939351</ele>
        <time>2020-09-29T10:55:53.786Z</time>
      </trkpt>
      <trkpt lat="64.08634" lon="20.50136">
        <ele>111.117939</ele>
        <time>2020-09-29T10:56:47.797Z</time>
      </trkpt>
      <trkpt lat="64.08432" lon="20.50018">
        <ele>104.742398</ele>
        <time>2020-09-29T10:57:33.772Z</time>
      </trkpt>
      <trkpt lat="64.08219" lon="20.50023">
        <ele>108.695274</ele>
        <time>2020-09-29T10:58:32.804Z</time>
      </trkpt>
      <trkpt lat="64.07993" lon="20.50015">
        <ele>105.343879</ele>
        <time>2020-09-29T10:59:12.780Z</time>
      </trkpt>
      <trkpt lat="64.07772" lon="20.5001">
        <ele>102.441977</ele>
        <time>2020-09-29T10:59:52.788Z</time>
      </trkpt>
      <trkpt lat="64.07571" lon="20.50007">
        <ele>104.896855</ele>
        <time>2020-09-29T11:00:34.759Z</time>
      </trkpt>
      <trkpt lat="64.07348" lon="20.50002">
        <ele>111.785629</ele>
        <time>2020-09-29T11:01:24.772Z</time>
      </trkpt>
      <trkpt lat="64.07136" lon="20.49995">
        <ele>108.780028</ele>
        <time>2020-09-29T11:02:10.789Z</time>
      </trkpt>
      <trkpt lat="64.06889" lon="20.49986">
        <ele>109.820744</ele>
        <time>2020-09-29T11:03:08.814Z</time>
      </trkpt>
      <trkpt lat="64.06675" lon="20.49809">
        <ele>108.520211</ele>
        <time>2020-09-29T11:03:53.772Z</time>
      </trkpt>
      <trkpt lat="64.06491" lon="20.49605">
        <ele>104.808225</ele>
        <time>2020-09-29T11:04:33.787Z</time>
      </trkpt>
      <trkpt lat="64.06318" lon="20.49413">
        <ele>102.35288</ele>
        <time>2020-09-29T11:05:14.777Z</time>
      </trkpt>
      <trkpt lat="64.06094" lon="20.49165">
        <ele>104.383062</ele>
        <time>2020-09-29T11:06:12.810Z</time>
      </trkpt>
      <trkpt lat="64.05888" lon="20.48946">
        <ele>107.75006</ele>
        <time>2020-09-29T11:07:12.787Z</time>
      </trkpt>
      <trkpt lat="64.05686" lon="20.48826">
        <ele>112.598733</ele>
        <time>2020-09-29T11:08:12.779Z</time>
      </trkpt>
      <trkpt lat="64.05455" lon="20.48703">
        <ele>110.077308</ele>
        <time>2020-09-29T11:09:12.785Z</time>
      </trkpt>
      <trkpt lat="64.05247" lon="20.48591">
        <ele>105.618912</ele>
        <time>2020-09-29T11:10:00.813Z</time>
      </trkpt>
      <trkpt lat="64.05054" lon="20.48532">
        <ele>102.251285</ele>
        <time>2020-09-29T11:10:41.797Z</time>
      </trkpt>
      <trkpt lat="64.04815" lon="20.48497">
        <ele>105.640146</ele>
        <time>2020-09-29T11:11:35.802Z</time>
      </trkpt>
      <trkpt lat="64.04593" lon="20.48467">
        <ele>115.488589</ele>
        <time>2020-09-29T11:12:35.818Z</time>
      </trkpt>
      <trkpt lat="64.04374" lon="20.48435">
        <ele>110.749428</ele>
        <time>2020-09-29T11:13:25.795Z</time>
      </trkpt>
      <trkpt lat="64.04162" lon="20.48403">
        <ele>102.520196</ele>
        <time>2020-09-29T11:14:05.822Z</time>
      </trkpt>
      <trkpt lat="64.03959" lon="20.4838">
        <ele>105.495206</ele>
        <time>2020-09-29T11:14:49.770Z</time>
      </trkpt>
      <trkpt lat="64.03718" lon="20.48344">
        <ele>106.698671</ele>
        <time>2020-09-29T11:15:29.767Z</time>
      </trkpt>
      <trkpt lat="64.03498" lon="20.48302">
        <ele>101.907449</ele>
        <time>2020-09-29T11:16:09.789Z</time>
      </trkpt>
      <trkpt lat="64.03267" lon="20.4825">
        <ele>94.685378</ele>
        <time>2020-09-29T11:16:49.775Z</time>
      </trkpt>
      <trkpt lat="64.03022" lon="20.48189">
        <ele>92.170296</ele>
        <time>2020-09-29T11:17:34.828Z</time>
      </trkpt>
      <trkpt lat="64.02801" lon="20.48097">
        <ele>90.407047</ele>
        <time>2020-09-29T11:18:16.776Z</time>
      </trkpt>
      <trkpt lat="64.02608" lon="20.47889">
        <ele>90.867241</ele>
        <time>2020-09-29T11:19:07.790Z</time>
      </trkpt>
      <trkpt lat="64.02486" lon="20.47477">
        <ele>93.972164</ele>
        <time>2020-09-29T11:20:08.828Z</time>
      </trkpt>
      <trkpt lat="64.02366" lon="20.4706">
        <ele>97.69121</ele>
        <time>2020-09-29T11:21:12.798Z</time>
      </trkpt>
      <trkpt lat="64.02247" lon="20.46654">
        <ele>97.760228</ele>
        <time>2020-09-29T11:22:03.797Z</time>
      </trkpt>
      <trkpt lat="64.02125" lon="20.4623">
        <ele>92.612862</ele>
        <time>2020-09-29T11:22:43.783Z</time>
      </trkpt>
      <trkpt lat="64.02015" lon="20.45848">
        <ele>91.449188</ele>
        <time>2020-09-29T11:23:23.831Z</time>
      </trkpt>
      <trkpt lat="64.01872" lon="20.45438">
        <ele>97.121994</ele>
        <time>2020-09-29T11:24:22.797Z</time>
      </trkpt>
      <trkpt lat="64.01731" lon="20.45049">
        <ele>99.914625</ele>
        <time>2020-09-29T11:25:15.775Z</time>
      </trkpt>
      <trkpt lat="64.0157" lon="20.44585">
        <ele>91.943315</ele>
        <time>2020-09-29T11:25:55.788Z</time>
      </trkpt>
      <trkpt lat="64.01467" lon="20.44167">
        <ele>93.631226</ele>
        <time>2020-09-29T11:26:37.786Z</time>
      </trkpt>
      <trkpt lat="64.01356" lon="20.43731">
        <ele>91.904652</ele>
        <time>2020-09-29T11:27:26.774Z</time>
      </trkpt>
      <trkpt lat="64.01245" lon="20.4331">
        <ele>95.813807</ele>
        <time>2020-09-29T11:28:15.779Z</time>
      </trkpt>
      <trkpt lat="64.01144" lon="20.42896">
        <ele>101.660074</ele>
        <time>2020-09-29T11:29:18.778Z</time>
      </trkpt>
      <trkpt lat="64.01048" lon="20.42422">
        <ele>95.054874</ele>
        <time>2020-09-29T11:30:00.775Z</time>
      </trkpt>
      <trkpt lat="64.00947" lon="20.4192">
        <ele>89.325274</ele>
        <time>2020-09-29T11:30:40.778Z</time>
      </trkpt>
      <trkpt lat="64.0086" lon="20.41488">
        <ele>88.52737</ele>
        <time>2020-09-29T11:31:20.808Z</time>
      </trkpt>
      <trkpt lat="64.00769" lon="20.41041">
        <ele>88.346312</ele>
        <time>2020-09-29T11:32:00.801Z</time>
      </trkpt>
      <trkpt lat="64.00665" lon="20.4054">
        <ele>86.437167</ele>
        <time>2020-09-29T11:32:40.801Z</time>
      </trkpt>
      <trkpt lat="64.0057" lon="20.40068">
        <ele>84.021238</ele>
        <time>2020-09-29T11:33:26.780Z</time>
      </trkpt>
      <trkpt lat="64.00471" lon="20.39581">
        <ele>80.365782</ele>
        <time>2020-09-29T11:34:06.791Z</time>
      </trkpt>
      <trkpt lat="64.00362" lon="20.39167">
        <ele>76.595211</ele>
        <time>2020-09-29T11:34:46.799Z</time>
      </trkpt>
      <trkpt lat="64.00199" lon="20.38847">
        <ele>77.732227</ele>
        <time>2020-09-29T11:35:27.784Z</time>
      </trkpt>
      <trkpt lat="63.99991" lon="20.38717">
        <ele>82.695221</ele>
        <time>2020-09-29T11:36:15.839Z</time>
      </trkpt>
      <trkpt lat="63.99799" lon="20.3864">
        <ele>83.867821</ele>
        <time>2020-09-29T11:36:55.790Z</time>
      </trkpt>
      <trkpt lat="63.99606" lon="20.38563">
        <ele>84.366598</ele>
        <time>2020-09-29T11:37:35.827Z</time>
      </trkpt>
      <trkpt lat="63.99408" lon="20.38484">
        <ele>82.001283</ele>
        <time>2020-09-29T11:38:15.835Z</time>
      </trkpt>
      <trkpt lat="63.99202" lon="20.38316">
        <ele>85.116458</ele>
        <time>2020-09-29T11:39:10.789Z</time>
      </trkpt>
      <trkpt lat="63.99075" lon="20.37928">
        <ele>94.101601</ele>
        <time>2020-09-29T11:40:18.799Z</time>
      </trkpt>
      <trkpt lat="63.98954" lon="20.37544">
        <ele>108.330438</ele>
        <time>2020-09-29T11:41:30.816Z</time>
      </trkpt>
      <trkpt lat="63.98825" lon="20.37168">
        <ele>109.884626</ele>
        <time>2020-09-29T11:42:30.789Z</time>
      </trkpt>
      <trkpt lat="63.98659" lon="20.3681">
        <ele>103.881816</ele>
        <time>2020-09-29T11:43:21.813Z</time>
      </trkpt>
      <trkpt lat="63.98501" lon="20.36491">
        <ele>108.086698</ele>
        <time>2020-09-29T11:44:29.781Z</time>
      </trkpt>
      <trkpt lat="63.98328" lon="20.36158">
        <ele>105.183654</ele>
        <time>2020-09-29T11:45:29.807Z</time>
      </trkpt>
      <trkpt lat="63.98164" lon="20.35836">
        <ele>107.367056</ele>
        <time>2020-09-29T11:46:29.788Z</time>
      </trkpt>
      <trkpt lat="63.97989" lon="20.35478">
        <ele>109.114278</ele>
        <time>2020-09-29T11:47:27.776Z</time>
      </trkpt>
      <trkpt lat="63.97832" lon="20.35171">
        <ele>110.258117</ele>
        <time>2020-09-29T11:48:27.804Z</time>
      </trkpt>
      <trkpt lat="63.97649" lon="20.34816">
        <ele>117.329194</ele>
        <time>2020-09-29T11:49:30.778Z</time>
      </trkpt>
      <trkpt lat="63.97491" lon="20.3449">
        <ele>118.382796</ele>
        <time>2020-09-29T11:50:28.788Z</time>
      </trkpt>
      <trkpt lat="63.97342" lon="20.34181">
        <ele>117.448634</ele>
        <time>2020-09-29T11:51:10.796Z</time>
      </trkpt>
      <trkpt lat="63.97166" lon="20.3388">
        <ele>121.344024</ele>
        <time>2020-09-29T11:52:03.800Z</time>
      </trkpt>
      <trkpt lat="63.96964" lon="20.33597">
        <ele>121.651801</ele>
        <time>2020-09-29T11:53:03.775Z</time>
      </trkpt>
      <trkpt lat="63.96781" lon="20.33339">
        <ele>124.842985</ele>
        <time>2020-09-29T11:54:03.791Z</time>
      </trkpt>
      <trkpt lat="63.96598" lon="20.33083">
        <ele>126.867519</ele>
        <time>2020-09-29T11:54:59.781Z</time>
      </trkpt>
      <trkpt lat="63.96419" lon="20.32733">
        <ele>120.165997</ele>
        <time>2020-09-29T11:55:39.816Z</time>
      </trkpt>
      <trkpt lat="63.96262" lon="20.3242">
        <ele>121.665793</ele>
        <time>2020-09-29T11:56:21.814Z</time>
      </trkpt>
      <trkpt lat="63.96093" lon="20.32082">
        <ele>120.89488</ele>
        <time>2020-09-29T11:57:15.807Z</time>
      </trkpt>
      <trkpt lat="63.95912" lon="20.31721">
        <ele>113.833046</ele>
        <time>2020-09-29T11:57:57.806Z</time>
      </trkpt>
      <trkpt lat="63.95737" lon="20.31391">
        <ele>105.835002</ele>
        <time>2020-09-29T11:58:24.795Z</time>
      </trkpt>
      <trkpt lat="63.95534" lon="20.31148">
        <ele>102.886642</ele>
        <time>2020-09-29T11:58:51.804Z</time>
      </trkpt>
      <trkpt lat="63.95371" lon="20.30835">
        <ele>111.01912</ele>
        <time>2020-09-29T11:59:59.778Z</time>
      </trkpt>
      <trkpt lat="63.95201" lon="20.30529">
        <ele>109.266441</ele>
        <time>2020-09-29T12:00:53.819Z</time>
      </trkpt>
      <trkpt lat="63.94964" lon="20.30431">
        <ele>103.414142</ele>
        <time>2020-09-29T12:01:33.815Z</time>
      </trkpt>
      <trkpt lat="63.9469" lon="20.30393">
        <ele>94.056643</ele>
        <time>2020-09-29T12:02:07.789Z</time>
      </trkpt>
      <trkpt lat="63.94468" lon="20.304">
        <ele>86.053704</ele>
        <time>2020-09-29T12:02:43.786Z</time>
      </trkpt>
      <trkpt lat="63.9424" lon="20.3045">
        <ele>87.246793</ele>
        <time>2020-09-29T12:03:23.811Z</time>
      </trkpt>
      <trkpt lat="63.93996" lon="20.30283">
        <ele>93.292005</ele>
        <time>2020-09-29T12:04:25.800Z</time>
      </trkpt>
      <trkpt lat="63.93792" lon="20.30171">
        <ele>97.566057</ele>
        <time>2020-09-29T12:05:35.810Z</time>
      </trkpt>
      <trkpt lat="63.93567" lon="20.30077">
        <ele>87.109082</ele>
        <time>2020-09-29T12:06:09.795Z</time>
      </trkpt>
      <trkpt lat="63.93295" lon="20.30042">
        <ele>75.550088</ele>
        <time>2020-09-29T12:06:46.815Z</time>
      </trkpt>
      <trkpt lat="63.93047" lon="20.3006">
        <ele>73.519432</ele>
        <time>2020-09-29T12:07:26.796Z</time>
      </trkpt>
      <trkpt lat="63.92829" lon="20.30119">
        <ele>73.646242</ele>
        <time>2020-09-29T12:08:06.783Z</time>
      </trkpt>
      <trkpt lat="63.92624" lon="20.30214">
        <ele>77.9963</ele>
        <time>2020-09-29T12:09:02.825Z</time>
      </trkpt>
      <trkpt lat="63.92373" lon="20.30316">
        <ele>77.397433</ele>
        <time>2020-09-29T12:09:42.821Z</time>
      </trkpt>
      <trkpt lat="63.92129" lon="20.30453">
        <ele>70.45046</ele>
        <time>2020-09-29T12:10:22.799Z</time>
      </trkpt>
      <trkpt lat="63.91877" lon="20.30648">
        <ele>62.686105</ele>
        <time>2020-09-29T12:11:04.795Z</time>
      </trkpt>
      <trkpt lat="63.91657" lon="20.30784">
        <ele>60.318523</ele>
        <time>2020-09-29T12:11:44.799Z</time>
      </trkpt>
      <trkpt lat="63.91448" lon="20.30895">
        <ele>58.835512</ele>
        <time>2020-09-29T12:12:24.816Z</time>
      </trkpt>
      <trkpt lat="63.91229" lon="20.31007">
        <ele>56.492432</ele>
        <time>2020-09-29T12:13:04.827Z</time>
      </trkpt>
      <trkpt lat="63.91028" lon="20.31113">
        <ele>53.122856</ele>
        <time>2020-09-29T12:13:44.806Z</time>
      </trkpt>
      <trkpt lat="63.90824" lon="20.31218">
        <ele>53.295107</ele>
        <time>2020-09-29T12:14:28.793Z</time>
      </trkpt>
      <trkpt lat="63.90595" lon="20.31317">
        <ele>56.683897</ele>
        <time>2020-09-29T12:15:26.798Z</time>
      </trkpt>
      <trkpt lat="63.90373" lon="20.31401">
        <ele>62.021652</ele>
        <time>2020-09-29T12:16:26.829Z</time>
      </trkpt>
      <trkpt lat="63.90173" lon="20.31466">
        <ele>68.98137</ele>
        <time>2020-09-29T12:17:26.795Z</time>
      </trkpt>
      <trkpt lat="63.89958" lon="20.31485">
        <ele>73.20278</ele>
        <time>2020-09-29T12:18:29.830Z</time>
      </trkpt>
      <trkpt lat="63.89763" lon="20.31456">
        <ele>77.943852</ele>
        <time>2020-09-29T12:19:30.788Z</time>
      </trkpt>
      <trkpt lat="63.89564" lon="20.31391">
        <ele>82.670318</ele>
        <time>2020-09-29T12:20:36.777Z</time>
      </trkpt>
      <trkpt lat="63.89352" lon="20.31266">
        <ele>79.872711</ele>
        <time>2020-09-29T12:21:24.789Z</time>
      </trkpt>
      <trkpt lat="63.8915" lon="20.31377">
        <ele>71.922914</ele>
        <time>2020-09-29T12:22:13.803Z</time>
      </trkpt>
      <trkpt lat="63.88989" lon="20.31526">
        <ele>71.779443</ele>
        <time>2020-09-29T12:23:13.772Z</time>
      </trkpt>
      <trkpt lat="63.88778" lon="20.31644">
        <ele>67.874603</ele>
        <time>2020-09-29T12:24:03.795Z</time>
      </trkpt>
      <trkpt lat="63.88587" lon="20.31501">
        <ele>66.573912</ele>
        <time>2020-09-29T12:24:53.792Z</time>
      </trkpt>
      <trkpt lat="63.88397" lon="20.31394">
        <ele>61.032668</ele>
        <time>2020-09-29T12:25:41.803Z</time>
      </trkpt>
      <trkpt lat="63.88194" lon="20.31364">
        <ele>57.742125</ele>
        <time>2020-09-29T12:26:23.780Z</time>
      </trkpt>
      <trkpt lat="63.87977" lon="20.31327">
        <ele>53.892464</ele>
        <time>2020-09-29T12:27:05.796Z</time>
      </trkpt>
      <trkpt lat="63.87815" lon="20.31165">
        <ele>55.80836</ele>
        <time>2020-09-29T12:33:29.784Z</time>
      </trkpt>
      <trkpt lat="63.87636" lon="20.31069">
        <ele>54.492801</ele>
        <time>2020-09-29T12:34:53.778Z</time>
      </trkpt>
      <trkpt lat="63.87566" lon="20.30721">
        <ele>56.385939</ele>
        <time>2020-09-29T12:56:50.508Z</time>
      </trkpt>
      <trkpt lat="63.87343" lon="20.30719">
        <ele>55.891378</ele>
        <time>2020-09-29T12:57:47.507Z</time>
      </trkpt>
      <trkpt lat="63.8714" lon="20.30708">
        <ele>57.675913</ele>
        <time>2020-09-29T12:58:37.529Z</time>
      </trkpt>
      <trkpt lat="63.86922" lon="20.30663">
        <ele>61.531012</ele>
        <time>2020-09-29T12:59:37.555Z</time>
      </trkpt>
      <trkpt lat="63.86709" lon="20.30481">
        <ele>63.738573</ele>
        <time>2020-09-29T13:00:37.526Z</time>
      </trkpt>
      <trkpt lat="63.86477" lon="20.3037">
        <ele>68.54313</ele>
        <time>2020-09-29T13:01:36.522Z</time>
      </trkpt>
      <trkpt lat="63.86286" lon="20.30479">
        <ele>71.39354</ele>
        <time>2020-09-29T13:02:37.551Z</time>
      </trkpt>
      <trkpt lat="63.86067" lon="20.30324">
        <ele>70.426218</ele>
        <time>2020-09-29T13:03:36.521Z</time>
      </trkpt>
      <trkpt lat="63.85851" lon="20.30231">
        <ele>68.32567</ele>
        <time>2020-09-29T13:04:24.524Z</time>
      </trkpt>
      <trkpt lat="63.85675" lon="20.30146">
        <ele>73.316857</ele>
        <time>2020-09-29T13:05:10.518Z</time>
      </trkpt>
      <trkpt lat="63.85596" lon="20.29753">
        <ele>80.178818</ele>
        <time>2020-09-29T13:06:17.527Z</time>
      </trkpt>
      <trkpt lat="63.85389" lon="20.29625">
        <ele>76.916981</ele>
        <time>2020-09-29T13:07:11.501Z</time>
      </trkpt>
      <trkpt lat="63.85224" lon="20.29381">
        <ele>73.600852</ele>
        <time>2020-09-29T13:08:11.536Z</time>
      </trkpt>
      <trkpt lat="63.85039" lon="20.29075">
        <ele>70.911932</ele>
        <time>2020-09-29T13:08:57.517Z</time>
      </trkpt>
      <trkpt lat="63.84864" lon="20.28813">
        <ele>61.150849</ele>
        <time>2020-09-29T13:09:39.525Z</time>
      </trkpt>
      <trkpt lat="63.84737" lon="20.28344">
        <ele>56.470364</ele>
        <time>2020-09-29T13:10:10.517Z</time>
      </trkpt>
      <trkpt lat="63.84558" lon="20.27966">
        <ele>56.850623</ele>
        <time>2020-09-29T13:10:55.502Z</time>
      </trkpt>
      <trkpt lat="63.84339" lon="20.27626">
        <ele>49.649871</ele>
        <time>2020-09-29T13:11:35.515Z</time>
      </trkpt>
      <trkpt lat="63.84106" lon="20.2742">
        <ele>46.424821</ele>
        <time>2020-09-29T13:12:14.499Z</time>
      </trkpt>
      <trkpt lat="63.83896" lon="20.27317">
        <ele>47.420489</ele>
        <time>2020-09-29T13:12:54.521Z</time>
      </trkpt>
      <trkpt lat="63.83718" lon="20.2697">
        <ele>40.039037</ele>
        <time>2020-09-29T13:13:34.502Z</time>
      </trkpt>
      <trkpt lat="63.83527" lon="20.2674">
        <ele>41.402151</ele>
        <time>2020-09-29T13:14:26.524Z</time>
      </trkpt>
      <trkpt lat="63.83371" lon="20.26439">
        <ele>37.975196</ele>
        <time>2020-09-29T13:15:07.512Z</time>
      </trkpt>
      <trkpt lat="63.83305" lon="20.26045">
        <ele>40.895927</ele>
        <time>2020-09-29T13:20:53.530Z</time>
      </trkpt>
      <trkpt lat="63.83225" lon="20.25782">
        <ele>41.226326</ele>
        <time>2020-09-29T13:23:41.510Z</time>
      </trkpt>
      <trkpt lat="63.83252" lon="20.25521">
        <ele>46.886401</ele>
        <time>2020-09-29T13:27:48.511Z</time>
      </trkpt>
      <trkpt lat="63.83075" lon="20.25369">
        <ele>57.032198</ele>
        <time>2020-09-29T13:30:55.494Z</time>
      </trkpt>
      <trkpt lat="63.82931" lon="20.25428">
        <ele>50.559825</ele>
        <time>2020-09-29T13:33:19.506Z</time>
      </trkpt>
      <trkpt lat="63.82831" lon="20.25656">
        <ele>46.38542</ele>
        <time>2020-09-29T13:35:48.505Z</time>
      </trkpt>
    </trkseg>
  </trk>
</gpx>